Time;durP1;ratioP1;P1;durP2;ratioP2;P2;SDS_P1;SDS_P2;PMS_P1;PMS_P2;Temp;Humidity;BMP_temperature;BMP_pressure;BME280_temperature;BME280_humidity;BME280_pressure;Samples;Min_cycle;Max_cycle;Signal;HPM_P1;HPM_P2
2023/08/30 00:02:17;;;;;;;9.43;6.78;;;;;;;;;;5000630;28;21393;-70
2023/08/30 00:04:43;;;;;;;11.63;6.68;;;;;;;;;;5001338;28;20737;-69
2023/08/30 00:07:08;;;;;;;10.68;6.15;;;;;;;;;;5000975;28;20644;-70
2023/08/30 00:09:35;;;;;;;10.65;6.50;;;;;;;;;;5000926;28;20186;-69
2023/08/30 00:12:01;;;;;;;8.38;6.25;;;;;;;;;;5002297;28;20679;-70
2023/08/30 00:14:26;;;;;;;8.88;6.63;;;;;;;;;;5002077;28;20203;-70
2023/08/30 00:16:51;;;;;;;10.73;7.13;;;;;;;;;;4979013;23;1244867;-67
2023/08/30 00:19:17;;;;;;;9.05;6.60;;;;;;;;;;5016099;28;20182;-68
2023/08/30 00:21:42;;;;;;;9.35;7.15;;;;;;;;;;5016412;28;20179;-66
2023/08/30 00:24:08;;;;;;;10.32;7.00;;;;;;;;;;5019404;28;20359;-67
2023/08/30 00:26:33;;;;;;;8.77;6.25;;;;;;;;;;5015202;28;20209;-67
2023/08/30 00:28:58;;;;;;;8.13;5.75;;;;;;;;;;5019994;28;20655;-67
2023/08/30 00:31:23;;;;;;;21.80;5.97;;;;;;;;;;5015544;28;20220;-66
2023/08/30 00:33:49;;;;;;;7.32;6.00;;;;;;;;;;5015780;28;20841;-65
2023/08/30 00:36:14;;;;;;;8.40;6.43;;;;;;;;;;5019552;28;20738;-66
2023/08/30 00:38:39;;;;;;;9.40;6.55;;;;;;;;;;5014730;28;20525;-66
2023/08/30 00:41:05;;;;;;;9.32;6.05;;;;;;;;;;5016113;28;20848;-66
2023/08/30 00:43:30;;;;;;;9.15;6.35;;;;;;;;;;5016444;28;20691;-65
2023/08/30 00:45:55;;;;;;;10.32;6.20;;;;;;;;;;5014912;28;20252;-66
2023/08/30 00:48:21;;;;;;;8.70;5.50;;;;;;;;;;5018103;28;20182;-67
2023/08/30 00:50:46;;;;;;;9.98;6.25;;;;;;;;;;5017842;28;20209;-67
2023/08/30 00:53:12;;;;;;;8.73;5.85;;;;;;;;;;5015744;28;20175;-66
2023/08/30 00:55:37;;;;;;;8.23;5.72;;;;;;;;;;5017480;28;20277;-66
2023/08/30 00:58:03;;;;;;;10.07;6.25;;;;;;;;;;5016083;28;20643;-66
2023/08/30 01:00:29;;;;;;;10.23;5.90;;;;;;;;;;5015039;28;20732;-66
2023/08/30 01:02:55;;;;;;;7.60;5.63;;;;;;;;;;5015062;28;20189;-67
2023/08/30 01:05:20;;;;;;;7.70;5.40;;;;;;;;;;5015457;28;20234;-66
2023/08/30 01:07:46;;;;;;;8.25;5.78;;;;;;;;;;5017239;28;20887;-67
2023/08/30 01:10:11;;;;;;;7.25;5.53;;;;;;;;;;5013201;28;20246;-65
2023/08/30 01:12:56;;;;;;;8.10;5.72;;;;;;;;;;5013809;28;20678;-67
2023/08/30 01:15:22;;;;;;;12.80;6.50;;;;;;;;;;5015114;28;20194;-66
2023/08/30 01:17:48;;;;;;;7.60;5.97;;;;;;;;;;5014401;28;20614;-67
2023/08/30 01:20:16;;;;;;;8.90;6.15;;;;;;;;;;5013551;28;20193;-67
2023/08/30 01:22:59;;;;;;;7.32;5.53;;;;;;;;;;5014013;28;20588;-67
2023/08/30 01:25:43;;;;;;;9.50;6.63;;;;;;;;;;5017297;28;20225;-66
2023/08/30 01:28:09;;;;;;;7.18;5.45;;;;;;;;;;5016643;28;20185;-67
2023/08/30 01:30:37;;;;;;;8.35;5.88;;;;;;;;;;5016209;28;20225;-67
2023/08/30 01:33:03;;;;;;;9.82;6.78;;;;;;;;;;5013363;28;20659;-66
2023/08/30 01:35:32;;;;;;;9.52;6.50;;;;;;;;;;5013529;28;21479;-66
2023/08/30 01:37:58;;;;;;;9.57;6.18;;;;;;;;;;5017030;28;20943;-66
2023/08/30 01:40:24;;;;;;;13.95;6.28;;;;;;;;;;5014135;28;21011;-66
2023/08/30 01:42:50;;;;;;;11.43;7.57;;;;;;;;;;5015783;28;21065;-66
2023/08/30 01:45:16;;;;;;;10.57;6.63;;;;;;;;;;5017822;28;20900;-67
2023/08/30 01:47:42;;;;;;;11.02;6.82;;;;;;;;;;5016767;28;20271;-67
2023/08/30 01:50:08;;;;;;;9.00;6.18;;;;;;;;;;5014437;28;21082;-66
2023/08/30 01:52:33;;;;;;;8.13;5.97;;;;;;;;;;5013516;28;21034;-66
2023/08/30 01:54:59;;;;;;;10.05;7.10;;;;;;;;;;5015311;28;20186;-66
2023/08/30 01:57:25;;;;;;;10.43;6.90;;;;;;;;;;5014193;28;20205;-65
2023/08/30 01:59:50;;;;;;;9.30;6.25;;;;;;;;;;5014929;28;20182;-67
2023/08/30 02:02:15;;;;;;;9.50;6.90;;;;;;;;;;5012571;28;20707;-65
2023/08/30 02:04:40;;;;;;;9.45;6.43;;;;;;;;;;5015597;28;20192;-65
2023/08/30 02:07:26;;;;;;;11.35;7.00;;;;;;;;;;5018056;28;21887;-65
2023/08/30 02:09:58;;;;;;;14.93;7.40;;;;;;;;;;5017219;28;20189;-66
2023/08/30 02:12:27;;;;;;;12.15;6.75;;;;;;;;;;5019944;28;20255;-66
2023/08/30 02:14:53;;;;;;;9.27;6.47;;;;;;;;;;5024665;28;20539;-66
2023/08/30 02:17:18;;;;;;;10.10;7.03;;;;;;;;;;5023741;28;20214;-66
2023/08/30 02:19:44;;;;;;;12.25;7.72;;;;;;;;;;5019768;28;20214;-67
2023/08/30 02:22:09;;;;;;;10.98;7.18;;;;;;;;;;5019799;28;20179;-67
2023/08/30 02:24:35;;;;;;;9.85;7.45;;;;;;;;;;5019640;28;20951;-66
2023/08/30 02:27:00;;;;;;;11.30;7.20;;;;;;;;;;5017997;28;20233;-67
2023/08/30 02:29:25;;;;;;;13.90;7.78;;;;;;;;;;5021050;28;20182;-67
2023/08/30 02:31:50;;;;;;;11.68;7.07;;;;;;;;;;5019447;28;20310;-66
2023/08/30 02:34:16;;;;;;;9.52;6.60;;;;;;;;;;5022162;28;20251;-67
2023/08/30 02:36:41;;;;;;;12.75;7.60;;;;;;;;;;5019866;28;20198;-67
2023/08/30 02:39:06;;;;;;;13.85;7.68;;;;;;;;;;5020553;28;20961;-67
2023/08/30 02:41:31;;;;;;;11.43;7.47;;;;;;;;;;5020396;28;20174;-67
2023/08/30 02:43:57;;;;;;;11.30;8.07;;;;;;;;;;5019416;28;20178;-66
2023/08/30 02:46:22;;;;;;;11.65;7.93;;;;;;;;;;5021561;28;20255;-67
2023/08/30 02:48:47;;;;;;;13.02;8.13;;;;;;;;;;5016621;28;20212;-66
2023/08/30 02:51:12;;;;;;;12.25;8.13;;;;;;;;;;5018642;28;20637;-67
2023/08/30 02:53:37;;;;;;;15.13;8.27;;;;;;;;;;5018391;28;20772;-66
2023/08/30 02:56:03;;;;;;;14.82;9.07;;;;;;;;;;5016920;28;20884;-66
2023/08/30 02:58:28;;;;;;;21.95;9.13;;;;;;;;;;5017213;28;20190;-67
2023/08/30 03:00:53;;;;;;;14.75;8.38;;;;;;;;;;5015890;28;20284;-67
2023/08/30 03:03:18;;;;;;;12.07;8.00;;;;;;;;;;5016093;28;20189;-67
2023/08/30 03:05:44;;;;;;;11.27;7.75;;;;;;;;;;5017228;28;20209;-67
2023/08/30 03:08:09;;;;;;;13.00;8.52;;;;;;;;;;5018692;28;20186;-66
2023/08/30 03:10:34;;;;;;;11.90;8.00;;;;;;;;;;5018539;28;20206;-66
2023/08/30 03:12:59;;;;;;;11.68;8.45;;;;;;;;;;5019969;28;20190;-66
2023/08/30 03:15:25;;;;;;;13.57;9.00;;;;;;;;;;5020107;28;20193;-66
2023/08/30 03:17:50;;;;;;;16.45;9.43;;;;;;;;;;5015073;28;20243;-66
2023/08/30 03:20:15;;;;;;;11.77;8.50;;;;;;;;;;5015749;28;20701;-66
2023/08/30 03:22:41;;;;;;;14.05;9.63;;;;;;;;;;5014511;28;20664;-65
2023/08/30 03:25:06;;;;;;;13.02;9.80;;;;;;;;;;5017659;28;20246;-66
2023/08/30 03:27:32;;;;;;;15.00;9.95;;;;;;;;;;5016917;28;20279;-66
2023/08/30 03:29:58;;;;;;;13.63;8.95;;;;;;;;;;5019181;28;20190;-65
2023/08/30 03:32:23;;;;;;;13.93;9.23;;;;;;;;;;5017054;28;20194;-67
2023/08/30 03:34:48;;;;;;;19.08;10.82;;;;;;;;;;5019647;28;20186;-66
2023/08/30 03:37:14;;;;;;;12.35;9.05;;;;;;;;;;5017181;28;20284;-65
2023/08/30 03:39:39;;;;;;;14.07;9.20;;;;;;;;;;5015662;28;20659;-66
2023/08/30 03:42:05;;;;;;;14.13;10.27;;;;;;;;;;5014988;28;20183;-65
2023/08/30 03:44:30;;;;;;;17.10;9.10;;;;;;;;;;5018005;28;20672;-65
2023/08/30 03:46:56;;;;;;;15.30;9.38;;;;;;;;;;5021138;28;21055;-65
2023/08/30 03:49:22;;;;;;;12.65;8.57;;;;;;;;;;5014356;28;20240;-67
2023/08/30 03:51:47;;;;;;;11.55;8.27;;;;;;;;;;5017644;28;20210;-66
2023/08/30 03:54:16;;;;;;;14.00;9.02;;;;;;;;;;5014755;28;20296;-65
2023/08/30 03:56:41;;;;;;;15.40;11.13;;;;;;;;;;5016208;28;20206;-66
2023/08/30 03:59:06;;;;;;;11.55;8.65;;;;;;;;;;5017869;28;20222;-66
2023/08/30 04:01:31;;;;;;;12.82;8.90;;;;;;;;;;5016117;28;21638;-66
2023/08/30 04:03:57;;;;;;;13.27;9.10;;;;;;;;;;5018551;28;21008;-66
2023/08/30 04:06:22;;;;;;;10.65;7.93;;;;;;;;;;5015763;28;20209;-66
2023/08/30 04:08:48;;;;;;;14.60;8.85;;;;;;;;;;5016815;28;20194;-65
2023/08/30 04:11:13;;;;;;;12.50;8.07;;;;;;;;;;5016173;28;20206;-66
2023/08/30 04:13:38;;;;;;;12.57;8.40;;;;;;;;;;5017685;28;20210;-65
2023/08/30 04:16:03;;;;;;;19.30;8.63;;;;;;;;;;5018759;28;20215;-66
2023/08/30 04:18:29;;;;;;;14.43;9.23;;;;;;;;;;5019328;28;20178;-66
2023/08/30 04:20:54;;;;;;;15.27;9.35;;;;;;;;;;5018784;28;20188;-66
2023/08/30 04:23:19;;;;;;;14.40;9.18;;;;;;;;;;5018590;28;21116;-66
2023/08/30 04:25:44;;;;;;;11.18;7.45;;;;;;;;;;5016354;28;20201;-67
2023/08/30 04:28:09;;;;;;;14.93;9.57;;;;;;;;;;5017036;28;20186;-67
2023/08/30 04:30:35;;;;;;;13.50;9.60;;;;;;;;;;5016804;28;20296;-66
2023/08/30 04:33:02;;;;;;;15.93;8.60;;;;;;;;;;5016864;28;20217;-67
2023/08/30 04:35:28;;;;;;;12.65;8.63;;;;;;;;;;5019853;28;20198;-67
2023/08/30 04:37:53;;;;;;;11.23;8.23;;;;;;;;;;5021506;28;20185;-67
2023/08/30 04:40:18;;;;;;;11.68;8.60;;;;;;;;;;5014175;28;20192;-66
2023/08/30 04:42:43;;;;;;;15.02;9.05;;;;;;;;;;5015053;28;20647;-65
2023/08/30 04:45:09;;;;;;;14.57;9.35;;;;;;;;;;5015202;28;20191;-67
2023/08/30 04:47:35;;;;;;;12.93;8.48;;;;;;;;;;5015222;28;20261;-65
2023/08/30 04:50:00;;;;;;;12.17;8.37;;;;;;;;;;5014896;28;20710;-66
2023/08/30 04:52:25;;;;;;;12.63;9.00;;;;;;;;;;5019530;28;20550;-66
2023/08/30 04:54:50;;;;;;;13.90;8.93;;;;;;;;;;5021337;28;20759;-65
2023/08/30 04:57:16;;;;;;;12.43;8.43;;;;;;;;;;5016439;28;20197;-65
2023/08/30 04:59:42;;;;;;;14.40;8.68;;;;;;;;;;5015184;28;20244;-67
2023/08/30 05:02:07;;;;;;;12.30;8.75;;;;;;;;;;5015265;28;20189;-68
2023/08/30 05:04:33;;;;;;;14.60;9.18;;;;;;;;;;5016930;28;20657;-66
2023/08/30 05:06:58;;;;;;;11.17;8.43;;;;;;;;;;5014091;28;20256;-67
2023/08/30 05:09:24;;;;;;;15.10;9.52;;;;;;;;;;5011636;28;20193;-67
2023/08/30 05:11:50;;;;;;;16.58;8.60;;;;;;;;;;5014464;28;20214;-67
2023/08/30 05:14:15;;;;;;;13.40;8.25;;;;;;;;;;5014283;28;20211;-69
2023/08/30 05:16:40;;;;;;;12.55;8.48;;;;;;;;;;5012124;28;20222;-66
2023/08/30 05:19:06;;;;;;;11.80;8.55;;;;;;;;;;5012729;28;20216;-66
2023/08/30 05:21:31;;;;;;;13.00;8.13;;;;;;;;;;5014150;28;20206;-66
2023/08/30 05:23:56;;;;;;;12.27;8.20;;;;;;;;;;5014972;28;20259;-66
2023/08/30 05:26:21;;;;;;;10.02;7.38;;;;;;;;;;5015042;28;20985;-67
2023/08/30 05:28:46;;;;;;;12.50;7.97;;;;;;;;;;5014266;28;21084;-65
2023/08/30 05:31:12;;;;;;;12.93;8.13;;;;;;;;;;5016210;28;20208;-66
2023/08/30 05:33:37;;;;;;;11.98;7.50;;;;;;;;;;5016332;28;20286;-67
2023/08/30 05:36:02;;;;;;;11.38;8.00;;;;;;;;;;5014448;28;20818;-67
2023/08/30 05:38:28;;;;;;;13.13;8.15;;;;;;;;;;5014487;28;20184;-67
2023/08/30 05:40:53;;;;;;;12.02;7.43;;;;;;;;;;5015446;28;20814;-66
2023/08/30 05:43:18;;;;;;;11.75;8.30;;;;;;;;;;5019376;28;20185;-66
2023/08/30 05:45:43;;;;;;;13.05;8.20;;;;;;;;;;5022510;28;20221;-65
2023/08/30 05:48:09;;;;;;;11.50;7.97;;;;;;;;;;5021176;28;20312;-65
2023/08/30 05:50:34;;;;;;;10.20;7.75;;;;;;;;;;5021076;28;20272;-66
2023/08/30 05:53:00;;;;;;;10.68;7.35;;;;;;;;;;5018915;28;20182;-66
2023/08/30 05:55:26;;;;;;;13.45;7.90;;;;;;;;;;5017552;28;20175;-67
2023/08/30 05:57:51;;;;;;;10.88;7.32;;;;;;;;;;5019344;28;20193;-66
2023/08/30 06:00:16;;;;;;;12.02;8.18;;;;;;;;;;5018082;28;20191;-66
2023/08/30 06:02:41;;;;;;;12.55;7.97;;;;;;;;;;5019551;28;20197;-67
2023/08/30 06:05:07;;;;;;;12.90;8.30;;;;;;;;;;5023473;28;20181;-67
2023/08/30 06:07:32;;;;;;;12.13;8.82;;;;;;;;;;5021173;28;20208;-67
2023/08/30 06:09:58;;;;;;;14.45;8.02;;;;;;;;;;5020225;28;20191;-66
2023/08/30 06:12:23;;;;;;;12.15;7.97;;;;;;;;;;5022889;28;20178;-66
2023/08/30 06:14:52;;;;;;;11.95;7.93;;;;;;;;;;5019872;28;20182;-66
2023/08/30 06:17:17;;;;;;;10.60;8.02;;;;;;;;;;5019385;22;20241;-74
2023/08/30 06:19:42;;;;;;;14.07;8.98;;;;;;;;;;5004993;28;20187;-74
2023/08/30 06:22:08;;;;;;;14.18;8.32;;;;;;;;;;5006777;28;20268;-74
2023/08/30 06:24:33;;;;;;;15.35;9.55;;;;;;;;;;5004894;28;20214;-74
2023/08/30 06:26:59;;;;;;;13.52;9.20;;;;;;;;;;5021410;28;20628;-73
2023/08/30 06:29:25;;;;;;;11.88;8.68;;;;;;;;;;5025296;28;20178;-73
2023/08/30 06:31:50;;;;;;;14.02;8.93;;;;;;;;;;5032086;28;20229;-73
2023/08/30 06:34:15;;;;;;;14.48;8.68;;;;;;;;;;5033796;28;20182;-73
2023/08/30 06:36:40;;;;;;;15.40;8.38;;;;;;;;;;5034100;28;20312;-73
2023/08/30 06:39:06;;;;;;;11.65;8.15;;;;;;;;;;5037312;28;20178;-74
2023/08/30 06:41:31;;;;;;;12.10;8.27;;;;;;;;;;5031434;28;20260;-74
2023/08/30 06:43:57;;;;;;;11.05;8.48;;;;;;;;;;5034670;28;20217;-73
2023/08/30 06:46:22;;;;;;;14.57;8.73;;;;;;;;;;5035546;28;20221;-74
2023/08/30 06:48:48;;;;;;;11.27;8.13;;;;;;;;;;5034603;28;20249;-73
2023/08/30 06:51:13;;;;;;;13.98;8.65;;;;;;;;;;5032838;28;20583;-73
2023/08/30 06:53:38;;;;;;;12.95;8.50;;;;;;;;;;5019509;28;20621;-74
2023/08/30 06:56:04;;;;;;;16.15;8.95;;;;;;;;;;5027052;28;20397;-74
2023/08/30 06:58:29;;;;;;;15.35;9.50;;;;;;;;;;5030946;28;20204;-74
2023/08/30 07:00:56;;;;;;;14.13;9.95;;;;;;;;;;5031761;28;20212;-74
2023/08/30 07:03:21;;;;;;;13.93;9.30;;;;;;;;;;5031640;28;20193;-74
2023/08/30 07:05:49;;;;;;;14.23;9.57;;;;;;;;;;5033380;28;20186;-73
2023/08/30 07:08:15;;;;;;;13.55;8.52;;;;;;;;;;5033567;28;20189;-73
2023/08/30 07:10:40;;;;;;;14.10;9.30;;;;;;;;;;5025880;28;20211;-73
2023/08/30 07:13:10;;;;;;;12.98;8.80;;;;;;;;;;5029344;28;20178;-73
2023/08/30 07:15:35;;;;;;;16.00;9.35;;;;;;;;;;5026983;28;20576;-74
2023/08/30 07:18:00;;;;;;;13.50;8.50;;;;;;;;;;5034741;28;20217;-74
2023/08/30 07:20:25;;;;;;;15.73;9.43;;;;;;;;;;5035421;28;20186;-73
2023/08/30 07:22:51;;;;;;;13.40;8.73;;;;;;;;;;5034091;28;20205;-74
2023/08/30 07:25:16;;;;;;;13.80;8.75;;;;;;;;;;5033161;28;20178;-74
2023/08/30 07:27:41;;;;;;;12.52;8.82;;;;;;;;;;5037591;28;20218;-75
2023/08/30 07:30:07;;;;;;;11.68;9.05;;;;;;;;;;5034395;28;20184;-74
2023/08/30 07:32:32;;;;;;;11.40;8.65;;;;;;;;;;5034657;28;20185;-75
2023/08/30 07:34:57;;;;;;;10.23;7.60;;;;;;;;;;5035341;28;20232;-75
2023/08/30 07:37:23;;;;;;;15.30;8.23;;;;;;;;;;5036805;28;20273;-75
2023/08/30 07:39:48;;;;;;;10.90;8.25;;;;;;;;;;5030175;28;20178;-74
2023/08/30 07:42:16;;;;;;;10.02;7.78;;;;;;;;;;5031528;28;20190;-75
2023/08/30 07:44:41;;;;;;;10.55;6.55;;;;;;;;;;5032413;28;20308;-75
2023/08/30 07:47:06;;;;;;;8.65;6.30;;;;;;;;;;5031886;28;20234;-75
2023/08/30 07:49:32;;;;;;;10.48;7.30;;;;;;;;;;5022508;28;20175;-75
2023/08/30 07:51:57;;;;;;;10.18;7.30;;;;;;;;;;5028650;28;20217;-75
2023/08/30 07:54:22;;;;;;;10.95;7.80;;;;;;;;;;5032752;28;20240;-74
2023/08/30 07:56:47;;;;;;;12.07;7.82;;;;;;;;;;5028055;28;20198;-74
2023/08/30 07:59:13;;;;;;;11.20;6.70;;;;;;;;;;5025474;28;20177;-74
2023/08/30 08:01:38;;;;;;;9.80;7.13;;;;;;;;;;5031695;28;20182;-74
2023/08/30 08:04:03;;;;;;;8.07;6.90;;;;;;;;;;5031653;28;20617;-74
2023/08/30 08:06:28;;;;;;;8.30;6.30;;;;;;;;;;5032398;28;20206;-75
2023/08/30 08:08:54;;;;;;;7.97;6.05;;;;;;;;;;5031215;28;20186;-74
2023/08/30 08:11:19;;;;;;;9.80;6.55;;;;;;;;;;5031486;28;20676;-74
2023/08/30 08:13:44;;;;;;;9.95;6.63;;;;;;;;;;5035439;28;20189;-74
2023/08/30 08:16:09;;;;;;;8.63;5.75;;;;;;;;;;5029581;28;20259;-74
2023/08/30 08:18:35;;;;;;;7.13;5.50;;;;;;;;;;5032736;28;20166;-74
2023/08/30 08:21:00;;;;;;;8.68;5.95;;;;;;;;;;5032336;28;20604;-74
2023/08/30 08:23:25;;;;;;;7.20;5.50;;;;;;;;;;5023495;28;20446;-74
2023/08/30 08:25:56;;;;;;;8.43;5.32;;;;;;;;;;5025864;28;20182;-74
2023/08/30 08:28:22;;;;;;;7.15;5.32;;;;;;;;;;5032033;28;20214;-74
2023/08/30 08:30:50;;;;;;;7.65;4.93;;;;;;;;;;5028835;28;20311;-75
2023/08/30 08:33:17;;;;;;;8.73;5.53;;;;;;;;;;5030330;28;20252;-74
2023/08/30 08:35:42;;;;;;;10.43;5.30;;;;;;;;;;5030426;28;20236;-74
2023/08/30 08:38:07;;;;;;;9.30;5.32;;;;;;;;;;5028226;28;20661;-75
2023/08/30 08:40:36;;;;;;;8.88;6.45;;;;;;;;;;5033254;28;20182;-74
2023/08/30 08:43:02;;;;;;;7.65;5.38;;;;;;;;;;5028139;28;20261;-74
2023/08/30 08:45:27;;;;;;;6.63;5.05;;;;;;;;;;5048400;28;20214;-74
2023/08/30 08:47:53;;;;;;;7.57;5.55;;;;;;;;;;5033088;28;20194;-74
2023/08/30 08:50:18;;;;;;;7.88;5.53;;;;;;;;;;5031492;28;20667;-74
2023/08/30 08:52:44;;;;;;;8.57;6.15;;;;;;;;;;5032179;28;20186;-74
2023/08/30 08:55:09;;;;;;;11.80;6.13;;;;;;;;;;5031643;28;20255;-74
2023/08/30 08:57:35;;;;;;;8.68;6.82;;;;;;;;;;5030844;28;20194;-74
2023/08/30 09:00:01;;;;;;;7.47;6.40;;;;;;;;;;5029625;28;20174;-74
2023/08/30 09:02:28;;;;;;;9.45;6.30;;;;;;;;;;5024891;28;20186;-73
2023/08/30 09:04:54;;;;;;;9.90;6.63;;;;;;;;;;5055767;28;20183;-74
2023/08/30 09:07:19;;;;;;;9.68;6.88;;;;;;;;;;5029128;28;20273;-73
2023/08/30 09:09:45;;;;;;;8.40;6.93;;;;;;;;;;5032001;28;20583;-74
2023/08/30 09:12:10;;;;;;;8.07;6.95;;;;;;;;;;5029786;28;20213;-74
2023/08/30 09:14:35;;;;;;;7.75;6.60;;;;;;;;;;5026284;28;20182;-74
2023/08/30 09:17:01;;;;;;;8.18;6.68;;;;;;;;;;5042055;28;20214;-74
2023/08/30 09:19:27;;;;;;;11.48;7.55;;;;;;;;;;5021805;28;20182;-74
2023/08/30 09:21:52;;;;;;;8.02;6.90;;;;;;;;;;5019863;28;20221;-74
2023/08/30 09:24:18;;;;;;;12.00;7.15;;;;;;;;;;5032262;28;20678;-73
2023/08/30 09:26:46;;;;;;;8.45;6.82;;;;;;;;;;5022409;28;20207;-74
2023/08/30 09:29:12;;;;;;;7.47;6.72;;;;;;;;;;5027167;28;20201;-74
2023/08/30 09:31:39;;;;;;;8.48;6.82;;;;;;;;;;5027956;28;20194;-74
2023/08/30 09:34:04;;;;;;;8.52;6.65;;;;;;;;;;5024655;28;20189;-73
2023/08/30 09:36:33;;;;;;;8.02;7.22;;;;;;;;;;5025589;28;20576;-74
2023/08/30 09:38:58;;;;;;;7.80;6.68;;;;;;;;;;5056021;28;20491;-73
2023/08/30 09:41:24;;;;;;;7.43;6.72;;;;;;;;;;5028114;28;20208;-72
2023/08/30 09:43:49;;;;;;;6.90;6.20;;;;;;;;;;5030134;28;20187;-72
2023/08/30 09:46:15;;;;;;;6.60;6.00;;;;;;;;;;5029832;28;20205;-72
2023/08/30 09:48:41;;;;;;;6.03;5.05;;;;;;;;;;5029689;28;20189;-72
2023/08/30 09:51:07;;;;;;;7.65;5.88;;;;;;;;;;5020982;28;20206;-72
2023/08/30 09:53:36;;;;;;;6.10;5.53;;;;;;;;;;5026068;28;20193;-72
2023/08/30 09:56:01;;;;;;;7.85;4.97;;;;;;;;;;5029776;28;20612;-72
2023/08/30 09:58:27;;;;;;;5.18;4.68;;;;;;;;;;5021440;28;20179;-72
2023/08/30 10:00:53;;;;;;;5.10;4.35;;;;;;;;;;5028211;28;20197;-72
2023/08/30 10:03:18;;;;;;;4.65;4.25;;;;;;;;;;5024375;28;20178;-72
2023/08/30 10:05:44;;;;;;;6.25;4.80;;;;;;;;;;5032097;28;20221;-72
2023/08/30 10:08:11;;;;;;;6.22;3.65;;;;;;;;;;5029835;28;20228;-71
2023/08/30 10:10:37;;;;;;;3.25;2.95;;;;;;;;;;5028935;28;20213;-73
2023/08/30 10:13:03;;;;;;;3.40;2.90;;;;;;;;;;5029183;28;20210;-72
2023/08/30 10:15:31;;;;;;;6.10;3.28;;;;;;;;;;5032156;28;20193;-72
2023/08/30 10:17:57;;;;;;;3.60;3.25;;;;;;;;;;5029001;28;20253;-72
2023/08/30 10:20:23;;;;;;;6.53;3.47;;;;;;;;;;5023213;28;20182;-72
2023/08/30 10:22:49;;;;;;;3.90;3.03;;;;;;;;;;5033796;28;20304;-72
2023/08/30 10:25:17;;;;;;;3.92;2.92;;;;;;;;;;5028841;28;20182;-72
2023/08/30 10:27:46;;;;;;;4.90;2.65;;;;;;;;;;5032141;28;20217;-71
2023/08/30 10:30:12;;;;;;;3.80;2.53;;;;;;;;;;5040276;28;20367;-71
2023/08/30 10:32:44;;;;;;;6.28;2.53;;;;;;;;;;5033810;28;20174;-71
2023/08/30 10:35:16;;;;;;;5.72;2.42;;;;;;;;;;5033107;28;20234;-71
2023/08/30 10:37:41;;;;;;;5.85;2.67;;;;;;;;;;5027871;28;20202;-71
2023/08/30 10:40:07;;;;;;;4.32;2.20;;;;;;;;;;5026594;28;20178;-71
2023/08/30 10:42:32;;;;;;;7.28;2.22;;;;;;;;;;5032860;28;20180;-71
2023/08/30 10:45:04;;;;;;;5.20;2.25;;;;;;;;;;5029083;28;20185;-71
2023/08/30 10:47:31;;;;;;;4.38;2.92;;;;;;;;;;5034060;28;20281;-71
2023/08/30 10:49:56;;;;;;;4.57;2.15;;;;;;;;;;5030698;28;20648;-71
2023/08/30 10:52:22;;;;;;;3.95;1.88;;;;;;;;;;5030687;28;20221;-71
2023/08/30 10:54:48;;;;;;;2.72;1.85;;;;;;;;;;5034326;28;20650;-71
2023/08/30 10:57:14;;;;;;;4.45;2.58;;;;;;;;;;5034392;28;20281;-72
2023/08/30 10:59:40;;;;;;;4.30;2.20;;;;;;;;;;5030154;28;20296;-71
2023/08/30 11:02:05;;;;;;;5.82;2.58;;;;;;;;;;5030217;28;20625;-72
2023/08/30 11:04:31;;;;;;;6.38;2.22;;;;;;;;;;5032773;28;20178;-72
2023/08/30 11:06:56;;;;;;;4.70;2.30;;;;;;;;;;5027807;28;20240;-71
2023/08/30 11:09:23;;;;;;;6.15;2.33;;;;;;;;;;5030482;28;20178;-71
2023/08/30 11:11:49;;;;;;;5.85;2.35;;;;;;;;;;5032958;28;20234;-71
2023/08/30 11:14:15;;;;;;;4.93;2.17;;;;;;;;;;5026615;28;20218;-72
2023/08/30 11:16:40;;;;;;;7.80;2.83;;;;;;;;;;5026562;28;20266;-72
2023/08/30 11:19:06;;;;;;;6.45;2.35;;;;;;;;;;5031176;28;20170;-71
2023/08/30 11:21:33;;;;;;;4.45;2.22;;;;;;;;;;5027970;28;20202;-71
2023/08/30 11:23:58;;;;;;;5.45;3.00;;;;;;;;;;5030421;28;20233;-72
2023/08/30 11:26:24;;;;;;;3.35;1.88;;;;;;;;;;5031674;28;20759;-72
2023/08/30 11:28:51;;;;;;;8.63;1.95;;;;;;;;;;5031894;28;20261;-72
2023/08/30 11:31:26;;;;;;;4.68;1.98;;;;;;;;;;5025276;28;20198;-72
2023/08/30 11:33:55;;;;;;;6.78;2.50;;;;;;;;;;5024873;28;20273;-70
2023/08/30 11:36:24;;;;;;;7.90;2.13;;;;;;;;;;5033557;28;20198;-72
2023/08/30 11:38:50;;;;;;;7.07;2.08;;;;;;;;;;5028995;28;20185;-71
2023/08/30 11:41:15;;;;;;;6.00;2.13;;;;;;;;;;5032458;28;20170;-71
2023/08/30 11:43:41;;;;;;;6.05;2.03;;;;;;;;;;5032593;28;20184;-71
2023/08/30 11:46:06;;;;;;;6.20;2.33;;;;;;;;;;5033390;28;20198;-71
2023/08/30 11:48:31;;;;;;;9.13;2.78;;;;;;;;;;5028257;28;20217;-71
2023/08/30 11:50:58;;;;;;;16.60;2.58;;;;;;;;;;5028418;28;20194;-71
2023/08/30 11:53:23;;;;;;;6.43;1.85;;;;;;;;;;5033370;28;20194;-71
2023/08/30 11:55:48;;;;;;;4.57;2.65;;;;;;;;;;5031915;28;20564;-72
2023/08/30 11:58:13;;;;;;;6.97;2.38;;;;;;;;;;5030246;28;20232;-71
2023/08/30 12:00:39;;;;;;;9.23;2.50;;;;;;;;;;5030761;28;20179;-71
2023/08/30 12:03:05;;;;;;;7.85;2.08;;;;;;;;;;5031463;28;20225;-71
2023/08/30 12:05:33;;;;;;;3.50;1.30;;;;;;;;;;5032384;28;20182;-71
2023/08/30 12:07:59;;;;;;;9.20;2.30;;;;;;;;;;5033525;28;20259;-71
2023/08/30 12:10:24;;;;;;;3.30;1.42;;;;;;;;;;5027798;28;20171;-71
2023/08/30 12:12:49;;;;;;;5.95;1.58;;;;;;;;;;5033487;28;20174;-71
2023/08/30 12:15:15;;;;;;;4.47;1.50;;;;;;;;;;5032440;28;20182;-71
2023/08/30 12:17:41;;;;;;;4.65;1.30;;;;;;;;;;5034924;28;20451;-72
2023/08/30 12:20:14;;;;;;;4.93;1.45;;;;;;;;;;5031642;28;20548;-73
2023/08/30 12:22:39;;;;;;;3.22;1.33;;;;;;;;;;5025796;28;20208;-73
2023/08/30 12:25:15;;;;;;;4.50;1.17;;;;;;;;;;5027054;28;20233;-72
2023/08/30 12:27:40;;;;;;;4.43;0.90;;;;;;;;;;5029651;28;20202;-72
2023/08/30 12:30:06;;;;;;;5.90;1.13;;;;;;;;;;5024344;28;20265;-71
2023/08/30 12:32:31;;;;;;;2.13;1.13;;;;;;;;;;5031038;28;20202;-72
2023/08/30 12:34:57;;;;;;;6.53;1.05;;;;;;;;;;5029940;28;20261;-71
2023/08/30 12:37:23;;;;;;;4.75;1.52;;;;;;;;;;5027696;28;20206;-73
2023/08/30 12:39:49;;;;;;;6.13;1.73;;;;;;;;;;5025875;28;20283;-73
2023/08/30 12:42:14;;;;;;;7.43;1.58;;;;;;;;;;5038910;28;20182;-73
2023/08/30 12:44:39;;;;;;;4.88;1.30;;;;;;;;;;5030672;28;20268;-72
2023/08/30 12:47:04;;;;;;;3.47;1.77;;;;;;;;;;5031615;28;20572;-73
2023/08/30 12:49:29;;;;;;;5.88;1.42;;;;;;;;;;5020780;28;20178;-73
2023/08/30 12:51:55;;;;;;;4.25;1.50;;;;;;;;;;5024832;28;20375;-71
2023/08/30 12:54:20;;;;;;;6.82;1.88;;;;;;;;;;5029544;28;20554;-74
2023/08/30 12:56:45;;;;;;;5.38;1.75;;;;;;;;;;5026525;28;20675;-71
2023/08/30 12:59:10;;;;;;;8.60;2.40;;;;;;;;;;5058923;28;20659;-71
2023/08/30 13:01:35;;;;;;;5.70;1.85;;;;;;;;;;5027470;28;20639;-71
2023/08/30 13:04:01;;;;;;;7.25;2.22;;;;;;;;;;5029810;28;20181;-71
2023/08/30 13:06:26;;;;;;;5.43;1.63;;;;;;;;;;5028339;28;20710;-71
2023/08/30 13:08:51;;;;;;;4.05;1.35;;;;;;;;;;5032406;28;20174;-72
2023/08/30 13:11:16;;;;;;;9.27;1.95;;;;;;;;;;5024584;28;20677;-71
2023/08/30 13:13:41;;;;;;;4.18;1.85;;;;;;;;;;5023692;28;20221;-71
2023/08/30 13:16:07;;;;;;;5.97;1.65;;;;;;;;;;5021743;28;20288;-72
2023/08/30 13:18:32;;;;;;;3.08;1.48;;;;;;;;;;5030631;28;20466;-72
2023/08/30 13:20:57;;;;;;;1.75;1.05;;;;;;;;;;5026530;28;20225;-72
2023/08/30 13:23:22;;;;;;;3.20;1.10;;;;;;;;;;5021022;28;20191;-72
2023/08/30 13:25:48;;;;;;;1.50;0.95;;;;;;;;;;5027594;28;20205;-72
2023/08/30 13:28:14;;;;;;;5.80;1.50;;;;;;;;;;5020086;28;20603;-72
2023/08/30 13:30:43;;;;;;;3.72;1.42;;;;;;;;;;5031090;28;20194;-72
2023/08/30 13:33:08;;;;;;;6.03;1.70;;;;;;;;;;5030705;28;20261;-73
2023/08/30 13:35:34;;;;;;;4.43;1.60;;;;;;;;;;5018181;28;20758;-72
2023/08/30 13:37:59;;;;;;;2.90;1.65;;;;;;;;;;5021705;28;20458;-72
2023/08/30 13:40:25;;;;;;;5.82;1.20;;;;;;;;;;5026580;28;20178;-72
2023/08/30 13:42:50;;;;;;;4.28;1.80;;;;;;;;;;5032953;28;20262;-72
2023/08/30 13:45:16;;;;;;;2.70;1.40;;;;;;;;;;5030496;28;20264;-71
2023/08/30 13:47:41;;;;;;;3.13;1.63;;;;;;;;;;5026159;28;20309;-71
2023/08/30 13:50:07;;;;;;;4.93;1.77;;;;;;;;;;5026326;28;20190;-71
2023/08/30 13:52:33;;;;;;;6.40;1.20;;;;;;;;;;5022710;28;20206;-72
2023/08/30 13:54:58;;;;;;;2.80;1.60;;;;;;;;;;5035346;28;20181;-72
2023/08/30 13:57:23;;;;;;;2.78;1.60;;;;;;;;;;5027754;28;20286;-72
2023/08/30 13:59:48;;;;;;;2.20;0.85;;;;;;;;;;5025534;28;20265;-72
2023/08/30 14:02:13;;;;;;;1.60;0.85;;;;;;;;;;5024887;28;20546;-72
2023/08/30 14:04:39;;;;;;;2.42;1.38;;;;;;;;;;5033125;28;20218;-72
2023/08/30 14:07:04;;;;;;;3.47;1.27;;;;;;;;;;5034530;28;20699;-72
2023/08/30 14:09:29;;;;;;;6.70;1.52;;;;;;;;;;5028018;28;20534;-72
2023/08/30 14:11:55;;;;;;;4.95;1.65;;;;;;;;;;5027018;28;20261;-72
2023/08/30 14:14:20;;;;;;;5.10;1.60;;;;;;;;;;5032724;28;20261;-72
2023/08/30 14:16:45;;;;;;;3.72;1.25;;;;;;;;;;5029648;28;20271;-71
2023/08/30 14:19:10;;;;;;;5.90;1.50;;;;;;;;;;5030886;28;20174;-71
2023/08/30 14:21:36;;;;;;;6.10;1.60;;;;;;;;;;5032141;28;20431;-71
2023/08/30 14:24:01;;;;;;;9.65;1.90;;;;;;;;;;5034004;28;20273;-72
2023/08/30 14:26:27;;;;;;;6.03;1.67;;;;;;;;;;5026298;28;20229;-72
2023/08/30 14:28:53;;;;;;;8.77;1.67;;;;;;;;;;5020930;28;20186;-71